sensor_id;sensor_type;location;lat;lon;timestamp;pressure;altitude;pressure_sealevel;temperature;humidity
71344;BME280;59146;43.850;25.948;2023-05-21T00:01:37;101033.00;;;15.06;78.47
71344;BME280;59146;43.850;25.948;2023-05-21T00:04:03;101059.28;;;15.32;78.20
71344;BME280;59146;43.850;25.948;2023-05-21T00:06:34;101045.41;;;15.17;78.06
71344;BME280;59146;43.850;25.948;2023-05-21T00:09:02;100986.75;;;14.79;77.96
71344;BME280;59146;43.850;25.948;2023-05-21T00:11:27;101023.16;;;14.97;78.38
71344;BME280;59146;43.850;25.948;2023-05-21T00:13:53;101037.25;;;14.96;78.57
71344;BME280;59146;43.850;25.948;2023-05-21T00:16:18;101048.94;;;14.92;79.63
71344;BME280;59146;43.850;25.948;2023-05-21T00:18:44;101039.47;;;14.90;79.65
71344;BME280;59146;43.850;25.948;2023-05-21T00:21:09;100989.53;;;14.52;80.04
71344;BME280;59146;43.850;25.948;2023-05-21T00:23:36;100966.19;;;14.35;80.37
71344;BME280;59146;43.850;25.948;2023-05-21T00:26:03;101017.41;;;14.55;80.82
71344;BME280;59146;43.850;25.948;2023-05-21T00:28:29;101043.56;;;14.81;80.94
71344;BME280;59146;43.850;25.948;2023-05-21T00:30:54;100971.03;;;14.41;80.73
71344;BME280;59146;43.850;25.948;2023-05-21T00:33:20;100933.91;;;14.20;80.85
71344;BME280;59146;43.850;25.948;2023-05-21T00:35:46;100986.78;;;14.66;80.73
71344;BME280;59146;43.850;25.948;2023-05-21T00:38:11;101021.63;;;15.06;79.80
71344;BME280;59146;43.850;25.948;2023-05-21T00:40:36;101020.00;;;14.92;80.08
71344;BME280;59146;43.850;25.948;2023-05-21T00:43:05;100992.31;;;14.99;79.08
71344;BME280;59146;43.850;25.948;2023-05-21T00:45:32;100977.38;;;14.87;78.91
71344;BME280;59146;43.850;25.948;2023-05-21T00:47:57;100963.75;;;14.70;79.19
71344;BME280;59146;43.850;25.948;2023-05-21T00:50:23;101010.31;;;14.93;79.25
71344;BME280;59146;43.850;25.948;2023-05-21T00:52:50;101010.00;;;14.97;78.85
71344;BME280;59146;43.850;25.948;2023-05-21T00:55:16;100964.34;;;14.86;79.54
71344;BME280;59146;43.850;25.948;2023-05-21T00:57:41;100926.03;;;14.46;79.37
71344;BME280;59146;43.850;25.948;2023-05-21T01:00:07;100996.25;;;14.69;80.20
71344;BME280;59146;43.850;25.948;2023-05-21T01:02:35;100928.47;;;14.49;80.11
71344;BME280;59146;43.850;25.948;2023-05-21T01:05:01;100921.31;;;14.38;80.63
71344;BME280;59146;43.850;25.948;2023-05-21T01:07:34;100909.75;;;14.28;80.67
71344;BME280;59146;43.850;25.948;2023-05-21T01:10:05;100977.31;;;14.76;81.06
71344;BME280;59146;43.850;25.948;2023-05-21T01:12:32;101005.97;;;15.04;80.79
71344;BME280;59146;43.850;25.948;2023-05-21T01:15:03;100990.00;;;14.95;80.78
71344;BME280;59146;43.850;25.948;2023-05-21T01:17:29;100926.66;;;14.62;81.06
71344;BME280;59146;43.850;25.948;2023-05-21T01:19:57;100937.91;;;14.64;81.16
71344;BME280;59146;43.850;25.948;2023-05-21T01:22:23;100927.28;;;14.65;81.04
71344;BME280;59146;43.850;25.948;2023-05-21T01:24:50;100996.41;;;15.03;82.08
71344;BME280;59146;43.850;25.948;2023-05-21T01:27:15;100898.50;;;14.26;82.92
71344;BME280;59146;43.850;25.948;2023-05-21T01:29:41;100989.75;;;14.74;84.09
71344;BME280;59146;43.850;25.948;2023-05-21T01:32:32;101009.88;;;14.99;84.39
71344;BME280;59146;43.850;25.948;2023-05-21T01:35:10;100978.81;;;14.68;85.13
71344;BME280;59146;43.850;25.948;2023-05-21T01:37:45;101005.38;;;14.88;85.02
71344;BME280;59146;43.850;25.948;2023-05-21T01:40:18;100948.31;;;14.65;84.99
71344;BME280;59146;43.850;25.948;2023-05-21T01:42:47;100985.72;;;14.81;85.00
71344;BME280;59146;43.850;25.948;2023-05-21T01:45:16;100936.22;;;14.50;85.43
71344;BME280;59146;43.850;25.948;2023-05-21T01:47:46;100997.34;;;15.02;84.12
71344;BME280;59146;43.850;25.948;2023-05-21T01:50:13;100984.84;;;14.93;84.39
71344;BME280;59146;43.850;25.948;2023-05-21T01:52:38;100971.19;;;14.88;84.08
71344;BME280;59146;43.850;25.948;2023-05-21T01:55:12;100965.00;;;14.64;84.45
71344;BME280;59146;43.850;25.948;2023-05-21T01:57:37;100914.47;;;14.48;84.21
71344;BME280;59146;43.850;25.948;2023-05-21T02:00:03;100959.00;;;14.75;84.18
71344;BME280;59146;43.850;25.948;2023-05-21T02:02:29;100960.47;;;14.66;84.12
71344;BME280;59146;43.850;25.948;2023-05-21T02:04:55;100972.41;;;14.59;85.32
71344;BME280;59146;43.850;25.948;2023-05-21T02:07:20;100961.59;;;14.51;85.28
71344;BME280;59146;43.850;25.948;2023-05-21T02:09:46;100953.28;;;14.45;85.27
71344;BME280;59146;43.850;25.948;2023-05-21T02:12:12;100926.66;;;14.24;85.55
71344;BME280;59146;43.850;25.948;2023-05-21T02:14:37;100955.34;;;14.52;85.39
71344;BME280;59146;43.850;25.948;2023-05-21T02:17:03;100944.31;;;14.22;85.76
71344;BME280;59146;43.850;25.948;2023-05-21T02:19:28;100858.47;;;13.85;85.32
71344;BME280;59146;43.850;25.948;2023-05-21T02:21:54;100885.44;;;14.12;84.09
71344;BME280;59146;43.850;25.948;2023-05-21T02:24:19;100965.75;;;14.66;83.28
71344;BME280;59146;43.850;25.948;2023-05-21T02:26:46;100929.94;;;14.40;82.51
71344;BME280;59146;43.850;25.948;2023-05-21T02:29:12;100975.47;;;14.53;83.15
71344;BME280;59146;43.850;25.948;2023-05-21T02:31:38;100814.66;;;13.47;83.70
71344;BME280;59146;43.850;25.948;2023-05-21T02:34:03;100945.59;;;14.29;84.07
71344;BME280;59146;43.850;25.948;2023-05-21T02:36:28;100983.22;;;14.67;83.38
71344;BME280;59146;43.850;25.948;2023-05-21T02:38:57;100896.50;;;13.92;83.85
71344;BME280;59146;43.850;25.948;2023-05-21T02:41:22;100955.03;;;14.19;85.57
71344;BME280;59146;43.850;25.948;2023-05-21T02:43:48;100917.63;;;14.03;85.76
71344;BME280;59146;43.850;25.948;2023-05-21T02:46:13;100962.41;;;14.39;84.81
71344;BME280;59146;43.850;25.948;2023-05-21T02:48:39;100888.81;;;13.89;85.22
71344;BME280;59146;43.850;25.948;2023-05-21T02:51:04;100942.84;;;14.18;85.71
71344;BME280;59146;43.850;25.948;2023-05-21T02:53:30;100906.69;;;13.96;85.96
71344;BME280;59146;43.850;25.948;2023-05-21T02:55:55;100940.22;;;14.05;86.43
71344;BME280;59146;43.850;25.948;2023-05-21T02:58:21;100914.56;;;13.96;86.92
71344;BME280;59146;43.850;25.948;2023-05-21T03:00:50;100934.22;;;14.28;85.63
71344;BME280;59146;43.850;25.948;2023-05-21T03:03:16;100915.22;;;14.38;84.52
71344;BME280;59146;43.850;25.948;2023-05-21T03:05:42;100943.56;;;14.70;84.02
71344;BME280;59146;43.850;25.948;2023-05-21T03:08:07;100851.94;;;14.15;83.53
71344;BME280;59146;43.850;25.948;2023-05-21T03:10:32;100877.38;;;14.40;84.00
71344;BME280;59146;43.850;25.948;2023-05-21T03:12:58;100976.66;;;15.22;82.83
71344;BME280;59146;43.850;25.948;2023-05-21T03:15:23;100940.13;;;15.77;78.72
71344;BME280;59146;43.850;25.948;2023-05-21T03:17:49;100903.53;;;16.40;74.46
71344;BME280;59146;43.850;25.948;2023-05-21T03:20:15;100968.88;;;17.46;71.38
71344;BME280;59146;43.850;25.948;2023-05-21T03:22:43;100960.47;;;17.84;68.55
71344;BME280;59146;43.850;25.948;2023-05-21T03:25:10;100928.59;;;18.26;65.56
71344;BME280;59146;43.850;25.948;2023-05-21T03:27:37;100922.09;;;18.51;64.08
71344;BME280;59146;43.850;25.948;2023-05-21T03:30:02;100968.69;;;19.22;62.67
71344;BME280;59146;43.850;25.948;2023-05-21T03:32:28;100995.94;;;19.81;61.45
71344;BME280;59146;43.850;25.948;2023-05-21T03:34:53;100954.09;;;19.75;59.56
71344;BME280;59146;43.850;25.948;2023-05-21T03:37:19;100972.44;;;20.44;58.19
71344;BME280;59146;43.850;25.948;2023-05-21T03:39:44;100978.91;;;21.05;55.75
71344;BME280;59146;43.850;25.948;2023-05-21T03:42:09;100997.94;;;21.46;54.62
71344;BME280;59146;43.850;25.948;2023-05-21T03:44:35;100972.22;;;21.46;55.05
71344;BME280;59146;43.850;25.948;2023-05-21T03:47:00;100993.56;;;21.89;53.44
71344;BME280;59146;43.850;25.948;2023-05-21T03:49:26;100989.47;;;22.38;51.07
71344;BME280;59146;43.850;25.948;2023-05-21T03:51:51;100934.50;;;22.29;50.29
71344;BME280;59146;43.850;25.948;2023-05-21T03:54:17;101007.75;;;22.92;49.32
71344;BME280;59146;43.850;25.948;2023-05-21T03:56:42;101004.94;;;23.36;48.37
71344;BME280;59146;43.850;25.948;2023-05-21T03:59:08;101000.63;;;23.35;48.17
71344;BME280;59146;43.850;25.948;2023-05-21T04:01:33;100950.94;;;22.84;48.93
71344;BME280;59146;43.850;25.948;2023-05-21T04:03:59;100950.13;;;22.83;48.95
71344;BME280;59146;43.850;25.948;2023-05-21T04:06:24;100947.41;;;23.17;47.85
71344;BME280;59146;43.850;25.948;2023-05-21T04:08:50;100972.34;;;23.58;46.47
71344;BME280;59146;43.850;25.948;2023-05-21T04:11:16;100993.91;;;24.13;45.77
71344;BME280;59146;43.850;25.948;2023-05-21T04:13:41;100996.69;;;24.43;45.16
71344;BME280;59146;43.850;25.948;2023-05-21T04:16:07;100938.50;;;23.91;44.85
71344;BME280;59146;43.850;25.948;2023-05-21T04:18:33;100975.53;;;23.86;45.51
71344;BME280;59146;43.850;25.948;2023-05-21T04:20:59;100905.34;;;23.85;44.79
71344;BME280;59146;43.850;25.948;2023-05-21T04:23:26;101005.28;;;24.86;44.00
71344;BME280;59146;43.850;25.948;2023-05-21T04:25:52;100995.00;;;23.62;45.94
71344;BME280;59146;43.850;25.948;2023-05-21T04:28:18;101011.38;;;24.07;45.48
71344;BME280;59146;43.850;25.948;2023-05-21T04:30:47;100998.41;;;24.12;45.12
71344;BME280;59146;43.850;25.948;2023-05-21T04:33:14;101014.34;;;23.88;45.75
71344;BME280;59146;43.850;25.948;2023-05-21T04:35:45;101007.69;;;24.40;44.20
71344;BME280;59146;43.850;25.948;2023-05-21T04:38:11;101011.63;;;24.85;43.66
71344;BME280;59146;43.850;25.948;2023-05-21T04:40:36;100962.91;;;24.75;42.69
71344;BME280;59146;43.850;25.948;2023-05-21T04:43:02;100943.31;;;24.03;44.68
71344;BME280;59146;43.850;25.948;2023-05-21T04:45:28;100837.31;;;23.65;44.24
71344;BME280;59146;43.850;25.948;2023-05-21T04:47:53;100967.88;;;24.70;43.60
71344;BME280;59146;43.850;25.948;2023-05-21T04:50:19;100872.50;;;24.48;42.31
71344;BME280;59146;43.850;25.948;2023-05-21T04:52:44;100943.97;;;24.21;43.98
71344;BME280;59146;43.850;25.948;2023-05-21T04:55:10;100912.31;;;23.86;44.30
71344;BME280;59146;43.850;25.948;2023-05-21T04:57:36;101005.88;;;24.25;44.67
71344;BME280;59146;43.850;25.948;2023-05-21T05:00:01;100894.44;;;22.64;46.26
71344;BME280;59146;43.850;25.948;2023-05-21T05:02:30;101011.56;;;22.90;48.45
71344;BME280;59146;43.850;25.948;2023-05-21T05:04:55;101006.66;;;22.52;49.91
71344;BME280;59146;43.850;25.948;2023-05-21T05:07:20;100938.72;;;21.71;49.88
71344;BME280;59146;43.850;25.948;2023-05-21T05:09:46;101014.28;;;22.21;50.46
71344;BME280;59146;43.850;25.948;2023-05-21T05:12:12;100975.28;;;22.12;50.81
71344;BME280;59146;43.850;25.948;2023-05-21T05:14:37;100850.59;;;21.05;51.48
71344;BME280;59146;43.850;25.948;2023-05-21T05:17:03;100937.66;;;21.46;52.41
71344;BME280;59146;43.850;25.948;2023-05-21T05:19:29;101002.53;;;22.06;51.91
71344;BME280;59146;43.850;25.948;2023-05-21T05:21:55;100999.72;;;21.90;52.53
71344;BME280;59146;43.850;25.948;2023-05-21T05:24:21;100999.28;;;21.94;51.67
71344;BME280;59146;43.850;25.948;2023-05-21T05:26:46;100960.25;;;21.32;53.04
71344;BME280;59146;43.850;25.948;2023-05-21T05:29:12;100943.56;;;21.22;54.04
71344;BME280;59146;43.850;25.948;2023-05-21T05:31:37;100881.44;;;20.88;53.74
71344;BME280;59146;43.850;25.948;2023-05-21T05:34:03;100950.31;;;21.17;54.25
71344;BME280;59146;43.850;25.948;2023-05-21T05:36:28;100976.03;;;21.61;53.92
71344;BME280;59146;43.850;25.948;2023-05-21T05:38:53;101005.19;;;21.71;54.29
71344;BME280;59146;43.850;25.948;2023-05-21T05:41:19;101000.72;;;21.89;52.03
71344;BME280;59146;43.850;25.948;2023-05-21T05:43:45;100972.75;;;22.28;50.47
71344;BME280;59146;43.850;25.948;2023-05-21T05:46:10;100908.41;;;22.58;48.73
71344;BME280;59146;43.850;25.948;2023-05-21T05:48:36;100983.13;;;23.32;48.23
71344;BME280;59146;43.850;25.948;2023-05-21T05:51:01;100994.34;;;23.76;47.33
71344;BME280;59146;43.850;25.948;2023-05-21T05:53:27;100983.66;;;23.92;46.50
71344;BME280;59146;43.850;25.948;2023-05-21T05:55:52;100937.66;;;23.74;46.87
71344;BME280;59146;43.850;25.948;2023-05-21T05:58:18;100916.81;;;24.18;44.69
71344;BME280;59146;43.850;25.948;2023-05-21T06:00:43;100992.34;;;24.51;43.98
71344;BME280;59146;43.850;25.948;2023-05-21T06:03:08;100961.75;;;25.08;42.11
71344;BME280;59146;43.850;25.948;2023-05-21T06:05:36;100977.78;;;25.39;42.31
71344;BME280;59146;43.850;25.948;2023-05-21T06:08:01;100936.06;;;24.52;44.58
71344;BME280;59146;43.850;25.948;2023-05-21T06:10:26;100967.19;;;24.92;43.31
71344;BME280;59146;43.850;25.948;2023-05-21T06:12:52;100924.66;;;24.74;42.68
71344;BME280;59146;43.850;25.948;2023-05-21T06:15:17;100850.84;;;24.34;42.83
71344;BME280;59146;43.850;25.948;2023-05-21T06:17:44;100990.00;;;25.33;42.07
71344;BME280;59146;43.850;25.948;2023-05-21T06:20:09;100942.25;;;24.99;42.47
71344;BME280;59146;43.850;25.948;2023-05-21T06:22:35;100918.06;;;24.93;43.25
71344;BME280;59146;43.850;25.948;2023-05-21T06:25:01;100918.41;;;25.51;42.13
71344;BME280;59146;43.850;25.948;2023-05-21T06:27:27;100949.06;;;26.00;42.01
71344;BME280;59146;43.850;25.948;2023-05-21T06:29:52;100902.88;;;25.69;42.04
71344;BME280;59146;43.850;25.948;2023-05-21T06:32:18;100927.41;;;25.50;41.48
71344;BME280;59146;43.850;25.948;2023-05-21T06:34:45;100894.16;;;25.53;41.37
71344;BME280;59146;43.850;25.948;2023-05-21T06:37:11;100915.47;;;25.98;40.07
71344;BME280;59146;43.850;25.948;2023-05-21T06:39:36;100907.50;;;24.99;42.43
71344;BME280;59146;43.850;25.948;2023-05-21T06:42:01;100957.22;;;25.39;41.79
71344;BME280;59146;43.850;25.948;2023-05-21T06:44:27;100941.69;;;25.35;43.91
71344;BME280;59146;43.850;25.948;2023-05-21T06:46:52;100907.78;;;25.35;41.77
71344;BME280;59146;43.850;25.948;2023-05-21T06:49:18;100963.91;;;26.26;41.72
71344;BME280;59146;43.850;25.948;2023-05-21T06:51:43;100939.53;;;26.21;41.77
71344;BME280;59146;43.850;25.948;2023-05-21T06:54:08;100940.13;;;26.45;40.84
71344;BME280;59146;43.850;25.948;2023-05-21T06:56:34;100870.84;;;26.28;40.18
71344;BME280;59146;43.850;25.948;2023-05-21T06:58:59;100944.63;;;26.45;41.56
71344;BME280;59146;43.850;25.948;2023-05-21T07:01:25;100908.88;;;26.38;41.60
71344;BME280;59146;43.850;25.948;2023-05-21T07:03:50;100855.63;;;26.14;41.24
71344;BME280;59146;43.850;25.948;2023-05-21T07:06:15;100958.69;;;27.26;40.61
71344;BME280;59146;43.850;25.948;2023-05-21T07:08:41;100895.41;;;27.32;40.11
71344;BME280;59146;43.850;25.948;2023-05-21T07:11:07;100920.50;;;27.24;38.80
71344;BME280;59146;43.850;25.948;2023-05-21T07:13:34;100933.91;;;26.16;41.17
71344;BME280;59146;43.850;25.948;2023-05-21T07:16:00;100901.19;;;26.06;39.84
71344;BME280;59146;43.850;25.948;2023-05-21T07:18:25;100885.72;;;25.10;43.26
71344;BME280;59146;43.850;25.948;2023-05-21T07:20:50;100861.06;;;25.83;41.52
71344;BME280;59146;43.850;25.948;2023-05-21T07:23:16;100907.50;;;26.42;41.16
71344;BME280;59146;43.850;25.948;2023-05-21T07:25:41;100935.63;;;26.96;41.17
71344;BME280;59146;43.850;25.948;2023-05-21T07:28:07;100919.72;;;27.09;39.93
71344;BME280;59146;43.850;25.948;2023-05-21T07:30:32;100944.06;;;27.43;38.88
71344;BME280;59146;43.850;25.948;2023-05-21T07:32:58;100905.81;;;27.20;38.57
71344;BME280;59146;43.850;25.948;2023-05-21T07:35:23;100884.97;;;27.01;39.36
71344;BME280;59146;43.850;25.948;2023-05-21T07:37:49;100923.53;;;27.57;38.46
71344;BME280;59146;43.850;25.948;2023-05-21T07:40:14;100925.50;;;27.70;38.29
71344;BME280;59146;43.850;25.948;2023-05-21T07:42:39;100885.28;;;27.48;38.06
71344;BME280;59146;43.850;25.948;2023-05-21T07:45:05;100891.34;;;27.57;39.29
71344;BME280;59146;43.850;25.948;2023-05-21T07:47:31;100876.03;;;28.00;37.83
71344;BME280;59146;43.850;25.948;2023-05-21T07:49:56;100920.66;;;28.35;37.68
71344;BME280;59146;43.850;25.948;2023-05-21T07:52:23;100922.78;;;27.91;36.72
71344;BME280;59146;43.850;25.948;2023-05-21T07:54:49;100861.06;;;27.91;37.20
71344;BME280;59146;43.850;25.948;2023-05-21T07:57:14;100865.00;;;27.95;36.14
71344;BME280;59146;43.850;25.948;2023-05-21T07:59:39;100867.66;;;28.16;36.17
71344;BME280;59146;43.850;25.948;2023-05-21T08:02:05;100883.09;;;28.07;35.50
71344;BME280;59146;43.850;25.948;2023-05-21T08:04:30;100887.91;;;27.91;36.02
71344;BME280;59146;43.850;25.948;2023-05-21T08:06:55;100873.13;;;28.01;35.93
71344;BME280;59146;43.850;25.948;2023-05-21T08:09:21;100857.28;;;27.58;35.66
71344;BME280;59146;43.850;25.948;2023-05-21T08:11:46;100821.34;;;27.31;36.76
71344;BME280;59146;43.850;25.948;2023-05-21T08:14:12;100862.66;;;27.58;36.01
71344;BME280;59146;43.850;25.948;2023-05-21T08:16:37;100911.09;;;27.49;35.89
71344;BME280;59146;43.850;25.948;2023-05-21T08:19:03;100905.31;;;27.31;35.99
71344;BME280;59146;43.850;25.948;2023-05-21T08:21:28;100899.25;;;26.87;37.23
71344;BME280;59146;43.850;25.948;2023-05-21T08:23:54;100875.66;;;26.32;38.32
71344;BME280;59146;43.850;25.948;2023-05-21T08:26:19;100905.47;;;26.44;38.91
71344;BME280;59146;43.850;25.948;2023-05-21T08:28:46;100906.69;;;26.56;38.79
71344;BME280;59146;43.850;25.948;2023-05-21T08:31:12;100906.75;;;26.19;38.80
71344;BME280;59146;43.850;25.948;2023-05-21T08:33:37;100917.88;;;25.70;39.48
71344;BME280;59146;43.850;25.948;2023-05-21T08:36:06;100863.34;;;25.34;40.42
71344;BME280;59146;43.850;25.948;2023-05-21T08:38:31;100881.19;;;25.42;40.13
71344;BME280;59146;43.850;25.948;2023-05-21T08:40:58;100875.69;;;25.35;39.79
71344;BME280;59146;43.850;25.948;2023-05-21T08:43:26;100910.59;;;25.42;39.49
71344;BME280;59146;43.850;25.948;2023-05-21T08:45:53;100913.50;;;25.32;41.12
71344;BME280;59146;43.850;25.948;2023-05-21T08:48:21;100902.38;;;25.43;40.38
71344;BME280;59146;43.850;25.948;2023-05-21T08:50:49;100863.38;;;25.03;40.89
71344;BME280;59146;43.850;25.948;2023-05-21T08:53:15;100897.56;;;25.39;40.09
71344;BME280;59146;43.850;25.948;2023-05-21T08:55:41;100898.13;;;25.57;40.04
71344;BME280;59146;43.850;25.948;2023-05-21T08:58:08;100886.03;;;25.61;39.88
71344;BME280;59146;43.850;25.948;2023-05-21T09:00:33;100881.66;;;25.45;39.06
71344;BME280;59146;43.850;25.948;2023-05-21T09:02:59;100913.19;;;25.72;39.32
71344;BME280;59146;43.850;25.948;2023-05-21T09:05:27;100900.06;;;25.63;39.00
71344;BME280;59146;43.850;25.948;2023-05-21T09:08:05;100909.88;;;25.48;38.60
71344;BME280;59146;43.850;25.948;2023-05-21T09:10:37;100911.97;;;25.60;38.40
71344;BME280;59146;43.850;25.948;2023-05-21T09:13:04;100918.09;;;25.83;37.66
71344;BME280;59146;43.850;25.948;2023-05-21T09:15:32;100866.56;;;25.30;39.04
71344;BME280;59146;43.850;25.948;2023-05-21T09:17:57;100882.94;;;25.49;38.87
71344;BME280;59146;43.850;25.948;2023-05-21T09:20:27;100881.38;;;25.77;39.45
71344;BME280;59146;43.850;25.948;2023-05-21T09:22:53;100921.28;;;26.01;38.85
71344;BME280;59146;43.850;25.948;2023-05-21T09:25:24;100841.38;;;25.47;38.46
71344;BME280;59146;43.850;25.948;2023-05-21T09:27:54;100892.38;;;25.37;39.42
71344;BME280;59146;43.850;25.948;2023-05-21T09:30:20;100874.50;;;25.15;40.49
71344;BME280;59146;43.850;25.948;2023-05-21T09:32:51;100902.59;;;25.42;39.68
71344;BME280;59146;43.850;25.948;2023-05-21T09:35:18;100911.47;;;25.79;39.81
71344;BME280;59146;43.850;25.948;2023-05-21T09:37:46;100885.16;;;25.83;39.21
71344;BME280;59146;43.850;25.948;2023-05-21T09:40:19;100857.81;;;25.58;38.47
71344;BME280;59146;43.850;25.948;2023-05-21T09:42:55;100887.81;;;26.06;38.90
71344;BME280;59146;43.850;25.948;2023-05-21T09:45:22;100906.31;;;26.73;38.13
71344;BME280;59146;43.850;25.948;2023-05-21T09:47:48;100884.66;;;26.60;39.53
71344;BME280;59146;43.850;25.948;2023-05-21T09:50:22;100915.91;;;26.68;37.33
71344;BME280;59146;43.850;25.948;2023-05-21T09:52:49;100900.28;;;26.57;37.11
71344;BME280;59146;43.850;25.948;2023-05-21T09:55:17;100833.78;;;26.46;35.88
71344;BME280;59146;43.850;25.948;2023-05-21T09:57:44;100826.81;;;26.16;36.45
71344;BME280;59146;43.850;25.948;2023-05-21T10:00:21;100887.94;;;26.41;35.38
71344;BME280;59146;43.850;25.948;2023-05-21T10:02:48;100881.72;;;26.55;35.03
71344;BME280;59146;43.850;25.948;2023-05-21T10:05:15;100917.63;;;27.26;35.65
71344;BME280;59146;43.850;25.948;2023-05-21T10:07:49;100896.47;;;26.95;36.20
71344;BME280;59146;43.850;25.948;2023-05-21T10:10:16;100869.34;;;27.05;35.33
71344;BME280;59146;43.850;25.948;2023-05-21T10:12:45;100900.75;;;27.32;34.91
71344;BME280;59146;43.850;25.948;2023-05-21T10:15:15;100887.44;;;26.52;34.80
71344;BME280;59146;43.850;25.948;2023-05-21T10:17:41;100915.72;;;26.40;35.85
71344;BME280;59146;43.850;25.948;2023-05-21T10:20:09;100915.75;;;26.03;36.41
71344;BME280;59146;43.850;25.948;2023-05-21T10:22:35;100876.25;;;25.90;37.25
71344;BME280;59146;43.850;25.948;2023-05-21T10:25:02;100837.63;;;25.70;36.66
71344;BME280;59146;43.850;25.948;2023-05-21T10:27:29;100906.75;;;26.48;35.24
71344;BME280;59146;43.850;25.948;2023-05-21T10:29:56;100901.22;;;26.49;34.37
71344;BME280;59146;43.850;25.948;2023-05-21T10:32:25;100877.84;;;26.58;33.14
71344;BME280;59146;43.850;25.948;2023-05-21T10:34:52;100846.78;;;26.63;31.87
71344;BME280;59146;43.850;25.948;2023-05-21T10:37:19;100845.88;;;26.56;31.72
71344;BME280;59146;43.850;25.948;2023-05-21T10:39:47;100858.25;;;26.57;32.55
71344;BME280;59146;43.850;25.948;2023-05-21T10:45:18;100882.56;;;26.27;34.26
71344;BME280;59146;43.850;25.948;2023-05-21T10:50:30;100904.56;;;26.37;35.12
71344;BME280;59146;43.850;25.948;2023-05-21T10:53:15;100883.44;;;26.05;35.58
71344;BME280;59146;43.850;25.948;2023-05-21T11:00:45;100832.56;;;25.38;35.89
71344;BME280;59146;43.850;25.948;2023-05-21T11:03:12;100811.78;;;25.63;35.83
71344;BME280;59146;43.850;25.948;2023-05-21T11:05:53;100886.53;;;26.45;35.03
71344;BME280;59146;43.850;25.948;2023-05-21T11:08:24;100890.56;;;27.21;35.27
71344;BME280;59146;43.850;25.948;2023-05-21T11:10:53;100880.53;;;27.72;34.38
71344;BME280;59146;43.850;25.948;2023-05-21T11:13:19;100829.31;;;27.67;30.95
71344;BME280;59146;43.850;25.948;2023-05-21T11:21:08;100851.63;;;28.29;32.92
71344;BME280;59146;43.850;25.948;2023-05-21T11:24:01;100864.38;;;27.93;33.21
71344;BME280;59146;43.850;25.948;2023-05-21T11:29:19;100814.78;;;27.12;33.21
71344;BME280;59146;43.850;25.948;2023-05-21T11:31:46;100857.16;;;27.23;33.34
71344;BME280;59146;43.850;25.948;2023-05-21T11:34:14;100865.66;;;27.27;33.25
71344;BME280;59146;43.850;25.948;2023-05-21T11:36:40;100817.03;;;26.73;34.41
71344;BME280;59146;43.850;25.948;2023-05-21T11:39:17;100809.66;;;26.96;34.52
71344;BME280;59146;43.850;25.948;2023-05-21T11:44:19;100850.53;;;27.40;33.34
71344;BME280;59146;43.850;25.948;2023-05-21T11:46:47;100842.72;;;27.67;33.06
71344;BME280;59146;43.850;25.948;2023-05-21T11:49:14;100797.25;;;27.93;32.96
71344;BME280;59146;43.850;25.948;2023-05-21T11:51:40;100829.88;;;28.24;31.62
71344;BME280;59146;43.850;25.948;2023-05-21T11:54:07;100832.94;;;27.87;31.85
71344;BME280;59146;43.850;25.948;2023-05-21T11:56:35;100833.41;;;27.63;32.59
71344;BME280;59146;43.850;25.948;2023-05-21T11:59:01;100800.41;;;27.20;32.43
71344;BME280;59146;43.850;25.948;2023-05-21T12:01:26;100774.47;;;27.27;32.64
71344;BME280;59146;43.850;25.948;2023-05-21T12:03:52;100825.47;;;28.10;32.79
71344;BME280;59146;43.850;25.948;2023-05-21T12:06:17;100747.78;;;28.02;32.60
71344;BME280;59146;43.850;25.948;2023-05-21T12:08:50;100788.72;;;28.10;31.50
71344;BME280;59146;43.850;25.948;2023-05-21T12:11:16;100748.56;;;27.13;32.76
71344;BME280;59146;43.850;25.948;2023-05-21T12:13:41;100819.25;;;27.05;33.71
71344;BME280;59146;43.850;25.948;2023-05-21T12:16:08;100814.78;;;26.91;33.41
71344;BME280;59146;43.850;25.948;2023-05-21T12:18:35;100781.53;;;26.71;33.45
71344;BME280;59146;43.850;25.948;2023-05-21T12:21:00;100743.63;;;26.53;33.84
71344;BME280;59146;43.850;25.948;2023-05-21T12:23:26;100780.00;;;26.77;33.50
71344;BME280;59146;43.850;25.948;2023-05-21T12:25:51;100769.50;;;26.82;33.87
71344;BME280;59146;43.850;25.948;2023-05-21T12:28:20;100800.28;;;27.07;33.39
71344;BME280;59146;43.850;25.948;2023-05-21T12:30:46;100819.25;;;27.05;31.50
71344;BME280;59146;43.850;25.948;2023-05-21T12:33:12;100775.56;;;26.90;30.84
71344;BME280;59146;43.850;25.948;2023-05-21T12:35:38;100799.78;;;26.97;31.70
71344;BME280;59146;43.850;25.948;2023-05-21T12:38:03;100730.38;;;26.45;31.79
71344;BME280;59146;43.850;25.948;2023-05-21T12:40:38;100764.47;;;26.72;32.02
71344;BME280;59146;43.850;25.948;2023-05-21T12:43:04;100731.94;;;26.75;31.64
71344;BME280;59146;43.850;25.948;2023-05-21T12:45:31;100785.63;;;27.51;30.61
71344;BME280;59146;43.850;25.948;2023-05-21T12:48:00;100789.84;;;27.67;30.18
71344;BME280;59146;43.850;25.948;2023-05-21T12:50:25;100824.22;;;27.08;30.57
71344;BME280;59146;43.850;25.948;2023-05-21T12:52:54;100741.78;;;26.18;31.92
71344;BME280;59146;43.850;25.948;2023-05-21T12:55:24;100832.59;;;26.34;32.38
71344;BME280;59146;43.850;25.948;2023-05-21T12:58:00;100750.25;;;26.07;32.86
71344;BME280;59146;43.850;25.948;2023-05-21T13:00:27;100770.66;;;26.37;31.19